Terminal Aerodrome Forecast
Issued by NWS

Home | Current Version | Previous Version | Text Only | Print | Product List | Glossary On
Versions: 1 2 3 4 5 6 7 8 9 10 11 12 13 14 15 16 17 18 19 20 21 22 23 24 25 26 27 28
560
FTUS46 KMTR 100315 AAA
TAFSFO
TAF AMD
KSFO 100315Z 1003/1106 18005KT P6SM BKN200
     FM100700 00000KT P6SM SKC
     FM101800 VRB04KT P6SM FEW200
     FM102100 32006KT P6SM FEW200
     FM110100 28010KT P6SM FEW200=

USA.gov is the U.S. government's official web portal to all federal, state and local government web resources and services.